createdAt,value
2024-05-09T00:00:57.661Z,93.76
2024-05-09T00:03:27.922Z,93.25
2024-05-09T00:05:58.179Z,93.12
2024-05-09T00:08:28.499Z,93.11
2024-05-09T00:11:01.430Z,93.09
2024-05-09T00:13:31.588Z,93.42
2024-05-09T00:16:02.866Z,93.08
2024-05-09T00:18:33.427Z,93.27
2024-05-09T00:21:03.770Z,92.91
2024-05-09T00:23:34.104Z,93.17
2024-05-09T00:26:07.307Z,93.20
2024-05-09T00:28:37.397Z,93.29
2024-05-09T00:31:07.854Z,92.97
2024-05-09T00:33:38.132Z,93.38
2024-05-09T00:36:10.027Z,93.31
2024-05-09T00:38:40.163Z,94.00
2024-05-09T00:41:14.145Z,93.68
2024-05-09T00:43:45.406Z,93.70
2024-05-09T00:46:15.704Z,93.31
2024-05-09T00:48:45.872Z,93.80
2024-05-09T00:51:16.233Z,93.73
2024-05-09T00:53:46.550Z,94.06
2024-05-09T00:56:20.331Z,94.03
2024-05-09T00:58:51.902Z,94.00
2024-05-09T01:01:24.717Z,93.86
2024-05-09T01:03:55.733Z,94.06
2024-05-09T01:06:25.990Z,94.01
2024-05-09T01:08:56.614Z,94.13
2024-05-09T01:11:36.712Z,94.08
2024-05-09T01:14:06.916Z,94.25
2024-05-09T01:16:37.339Z,94.06
2024-05-09T01:19:07.915Z,93.60
2024-05-09T01:21:38.154Z,93.25
2024-05-09T01:24:11.142Z,93.31
2024-05-09T01:26:41.301Z,93.30
2024-05-09T01:29:11.492Z,93.81
2024-05-09T01:31:41.704Z,93.34
2024-05-09T01:34:11.990Z,93.55
2024-05-09T01:36:42.203Z,93.27
2024-05-09T01:39:14.924Z,93.60
2024-05-09T01:41:45.009Z,93.04
2024-05-09T01:44:15.081Z,92.96
2024-05-09T01:46:45.255Z,93.36
2024-05-09T01:49:15.537Z,93.05
2024-05-09T01:51:45.795Z,93.24
2024-05-09T01:54:18.472Z,92.87
2024-05-09T01:56:48.662Z,92.91
2024-05-09T01:59:18.839Z,92.55
2024-05-09T02:01:56.670Z,92.50
2024-05-09T02:04:28.099Z,92.57
2024-05-09T02:06:58.333Z,92.63
2024-05-09T02:09:31.362Z,92.84
2024-05-09T02:12:01.587Z,92.36
2024-05-09T02:14:31.783Z,92.16
2024-05-09T02:17:01.914Z,92.32
2024-05-09T02:19:32.146Z,92.40
2024-05-09T02:22:02.316Z,92.68
2024-05-09T02:24:34.996Z,92.51
2024-05-09T02:27:05.179Z,92.78
2024-05-09T02:29:35.495Z,93.07
2024-05-09T02:32:05.966Z,92.86
2024-05-09T02:34:36.106Z,92.90
2024-05-09T02:37:03.638Z,93.08
2024-05-09T02:39:36.994Z,93.50
2024-05-09T02:42:04.741Z,93.54
2024-05-09T02:44:34.854Z,93.91
2024-05-09T02:47:02.525Z,93.58
2024-05-09T02:49:32.702Z,93.67
2024-05-09T02:52:00.186Z,93.63
2024-05-09T02:54:30.798Z,93.64
2024-05-09T02:57:00.899Z,93.73
2024-05-09T02:59:31.042Z,93.59
2024-05-09T03:01:58.602Z,93.46
2024-05-09T03:04:28.762Z,93.51
2024-05-09T03:06:56.553Z,93.73
2024-05-09T03:09:27.320Z,94.24
2024-05-09T03:11:55.213Z,93.98
2024-05-09T03:14:28.077Z,94.82
2024-05-09T03:16:55.876Z,94.82
2024-05-09T03:19:26.078Z,94.94
2024-05-09T03:21:53.697Z,95.29
2024-05-09T03:24:23.766Z,95.62
2024-05-09T03:26:51.283Z,95.51
2024-05-09T03:29:21.630Z,95.61
2024-05-09T03:31:51.800Z,95.04
2024-05-09T03:34:21.975Z,95.74
2024-05-09T03:36:52.070Z,95.64
2024-05-09T03:39:19.517Z,95.64
2024-05-09T03:41:49.666Z,95.18
2024-05-09T03:44:19.785Z,95.45
2024-05-09T03:46:47.354Z,95.19
2024-05-09T03:49:20.740Z,95.37
2024-05-09T03:51:48.347Z,95.27
2024-05-09T03:54:18.434Z,95.04
2024-05-09T03:56:46.092Z,94.71
2024-05-09T03:59:16.237Z,94.46
2024-05-09T04:01:43.787Z,94.45
2024-05-09T04:04:14.099Z,94.31
2024-05-09T04:06:44.191Z,94.31
2024-05-09T04:09:14.325Z,94.21
2024-05-09T04:11:41.885Z,94.27
2024-05-09T04:14:12.373Z,93.83
2024-05-09T04:16:39.990Z,94.08
2024-05-09T04:19:10.137Z,94.79
2024-05-09T04:21:40.233Z,95.00
2024-05-09T04:24:10.753Z,95.06
2024-05-09T04:26:40.914Z,94.91
2024-05-09T04:29:08.890Z,94.89
2024-05-09T04:31:39.609Z,94.84
2024-05-09T04:34:07.346Z,94.71
2024-05-09T04:36:39.005Z,94.88
2024-05-09T04:39:10.330Z,94.88
2024-05-09T04:41:40.493Z,95.10
2024-05-09T04:44:08.012Z,95.09
2024-05-09T04:46:39.735Z,95.14
2024-05-09T04:49:07.280Z,94.63
2024-05-09T04:51:38.032Z,94.49
2024-05-09T04:54:08.313Z,94.85
2024-05-09T04:56:41.189Z,94.55
2024-05-09T04:59:08.862Z,95.22
2024-05-09T05:01:38.955Z,95.37
2024-05-09T05:04:06.472Z,95.43
2024-05-09T05:06:36.670Z,95.53
2024-05-09T05:09:04.211Z,95.05
2024-05-09T05:11:34.394Z,95.08
2024-05-09T05:14:04.790Z,94.86
2024-05-09T05:16:35.360Z,94.78
2024-05-09T05:19:02.902Z,95.06
2024-05-09T05:21:33.152Z,94.88
2024-05-09T05:24:00.648Z,94.32
2024-05-09T05:26:30.809Z,94.54
2024-05-09T05:28:58.361Z,94.44
2024-05-09T05:31:31.107Z,93.96
2024-05-09T05:33:58.663Z,94.33
2024-05-09T05:36:28.737Z,94.17
2024-05-09T05:38:56.202Z,94.29
2024-05-09T05:41:26.452Z,93.84
2024-05-09T05:43:53.941Z,93.99
2024-05-09T05:46:24.067Z,94.34
2024-05-09T05:48:54.429Z,95.09
2024-05-09T05:51:25.202Z,95.03
2024-05-09T05:53:52.669Z,94.83
2024-05-09T05:56:22.921Z,94.97
2024-05-09T05:58:50.500Z,95.24
2024-05-09T06:01:20.626Z,94.94
2024-05-09T06:03:48.334Z,95.12
2024-05-09T06:06:21.170Z,94.41
2024-05-09T06:08:48.874Z,94.21
2024-05-09T06:11:19.207Z,94.89
2024-05-09T06:13:46.853Z,94.80
2024-05-09T06:16:17.083Z,94.54
2024-05-09T06:18:46.865Z,94.86
2024-05-09T06:21:22.593Z,95.03
2024-05-09T06:23:50.503Z,94.82
2024-05-09T06:26:20.656Z,94.69
2024-05-09T06:28:48.397Z,94.07
2024-05-09T06:31:18.558Z,94.30
2024-05-09T06:33:46.155Z,94.68
2024-05-09T06:36:16.630Z,94.50
2024-05-09T06:38:46.761Z,94.69
2024-05-09T06:41:16.924Z,94.75
2024-05-09T06:43:44.576Z,94.74
2024-05-09T06:46:14.726Z,94.56
2024-05-09T06:48:43.065Z,94.44
2024-05-09T06:51:13.437Z,94.81
2024-05-09T06:53:41.306Z,95.26
2024-05-09T06:56:14.258Z,94.96
2024-05-09T06:58:41.755Z,94.81
2024-05-09T07:01:11.918Z,94.80
2024-05-09T07:03:42.255Z,94.59
2024-05-09T07:06:12.509Z,94.39
2024-05-09T07:08:41.391Z,94.13
2024-05-09T07:11:14.545Z,93.93
2024-05-09T07:13:42.182Z,93.71
2024-05-09T07:16:12.402Z,93.89
2024-05-09T07:18:40.053Z,94.01
2024-05-09T07:21:10.479Z,94.02
2024-05-09T07:23:38.805Z,93.97
2024-05-09T07:26:08.981Z,93.79
2024-05-09T07:28:39.182Z,93.96
2024-05-09T07:31:09.705Z,94.01
2024-05-09T07:33:37.286Z,94.30
2024-05-09T07:36:07.536Z,94.09
2024-05-09T07:38:37.780Z,93.82
2024-05-09T07:41:06.569Z,94.14
2024-05-09T07:43:36.782Z,93.36
2024-05-09T07:47:10.068Z,92.74
2024-05-09T07:50:35.241Z,92.75
2024-05-09T07:54:18.050Z,91.94
2024-05-09T07:56:46.138Z,92.14
2024-05-09T07:59:16.415Z,91.92
2024-05-09T08:01:46.608Z,91.93
2024-05-09T08:04:16.830Z,92.31
2024-05-09T08:06:44.443Z,92.45
2024-05-09T08:09:19.618Z,92.36
2024-05-09T08:11:48.831Z,92.37
2024-05-09T08:14:19.070Z,92.18
2024-05-09T08:16:49.227Z,92.09
2024-05-09T08:19:19.540Z,91.90
2024-05-09T08:21:47.248Z,91.42
2024-05-09T08:24:17.401Z,91.46
2024-05-09T08:26:44.903Z,91.43
2024-05-09T08:29:15.723Z,91.28
2024-05-09T08:31:43.215Z,91.28
2024-05-09T08:34:17.138Z,91.38
2024-05-09T08:36:44.702Z,91.21
2024-05-09T08:39:14.796Z,91.04
2024-05-09T08:41:43.303Z,90.96
2024-05-09T08:44:13.465Z,90.46
2024-05-09T08:46:42.918Z,89.99
2024-05-09T08:49:17.004Z,90.06
2024-05-09T08:51:46.711Z,89.54
2024-05-09T08:54:18.008Z,89.25
2024-05-09T08:56:48.436Z,88.82
2024-05-09T08:59:24.221Z,89.00
2024-05-09T09:01:52.570Z,88.75
2024-05-09T09:04:26.890Z,88.35
2024-05-09T09:06:58.306Z,88.18
2024-05-09T09:09:30.677Z,87.96
2024-05-09T09:11:58.306Z,87.31
2024-05-09T09:14:28.564Z,86.75
2024-05-09T09:16:56.554Z,86.29
2024-05-09T09:19:29.422Z,86.35
2024-05-09T09:21:57.240Z,86.11
2024-05-09T09:24:27.438Z,85.28
2024-05-09T09:26:58.636Z,84.96
2024-05-09T09:29:29.160Z,84.50
2024-05-09T09:31:59.790Z,84.41
2024-05-09T09:34:33.327Z,83.61
2024-05-09T09:37:05.520Z,83.05
2024-05-09T09:39:37.362Z,82.85
2024-05-09T09:42:06.444Z,82.16
2024-05-09T09:44:39.579Z,81.94
2024-05-09T09:47:10.211Z,80.70
2024-05-09T09:49:44.010Z,80.54
2024-05-09T09:52:13.721Z,79.91
2024-05-09T09:54:46.120Z,79.40
2024-05-09T09:57:14.667Z,79.32
2024-05-09T09:59:47.421Z,78.71
2024-05-09T10:02:15.233Z,77.80
2024-05-09T10:04:48.308Z,77.45
2024-05-09T10:07:18.310Z,76.78
2024-05-09T10:09:48.718Z,76.55
2024-05-09T10:12:16.695Z,75.77
2024-05-09T10:14:51.725Z,75.45
2024-05-09T10:17:19.274Z,75.41
2024-05-09T10:19:52.228Z,74.57
2024-05-09T10:22:28.258Z,74.06
2024-05-09T10:25:07.532Z,73.25
2024-05-09T10:27:35.142Z,73.51
2024-05-09T10:30:14.317Z,72.98
2024-05-09T10:32:45.594Z,72.32
2024-05-09T10:35:22.711Z,71.41
2024-05-09T10:37:51.158Z,71.30
2024-05-09T10:40:26.614Z,70.59
2024-05-09T10:43:03.391Z,69.94
2024-05-09T10:45:36.025Z,69.12
2024-05-09T10:48:03.747Z,68.10
2024-05-09T10:50:37.644Z,67.90
2024-05-09T10:53:05.525Z,67.62
2024-05-09T10:55:35.638Z,67.30
2024-05-09T10:58:03.238Z,67.21
2024-05-09T11:00:36.362Z,67.03
2024-05-09T11:03:04.760Z,66.78
2024-05-09T11:05:38.965Z,67.05
2024-05-09T11:08:07.206Z,67.40
2024-05-09T11:10:37.651Z,67.27
2024-05-09T11:13:05.594Z,67.41
2024-05-09T11:15:41.919Z,66.96
2024-05-09T11:18:24.755Z,66.97
2024-05-09T11:20:59.816Z,67.31
2024-05-09T11:23:30.493Z,67.32
2024-05-09T11:26:02.016Z,67.70
2024-05-09T11:28:31.376Z,67.47
2024-05-09T11:31:10.424Z,66.87
2024-05-09T11:33:39.416Z,66.93
2024-05-09T11:36:12.834Z,66.58
2024-05-09T11:38:40.384Z,66.66
2024-05-09T11:41:10.643Z,66.23
2024-05-09T11:43:38.118Z,66.12
2024-05-09T11:46:08.529Z,65.84
2024-05-09T11:48:36.345Z,65.96
2024-05-09T11:51:08.262Z,65.36
2024-05-09T11:53:38.358Z,64.75
2024-05-09T11:56:10.122Z,64.56
2024-05-09T11:58:39.432Z,64.54
2024-05-09T12:01:09.595Z,64.21
2024-05-09T12:03:38.079Z,64.27
2024-05-09T12:06:08.725Z,63.97
2024-05-09T12:08:39.331Z,63.87
2024-05-09T12:11:09.644Z,63.53
2024-05-09T12:13:37.137Z,63.29
2024-05-09T12:16:07.718Z,63.06
2024-05-09T12:18:35.391Z,62.74
2024-05-09T12:21:05.574Z,62.34
2024-05-09T12:23:33.250Z,61.77
2024-05-09T12:26:05.953Z,61.68
2024-05-09T12:28:33.590Z,61.34
2024-05-09T12:31:03.782Z,61.06
2024-05-09T12:33:31.449Z,60.55
2024-05-09T12:36:01.783Z,60.59
2024-05-09T12:38:29.266Z,60.18
2024-05-09T12:40:59.424Z,59.74
2024-05-09T12:43:29.700Z,59.38
2024-05-09T12:46:00.094Z,58.95
2024-05-09T12:48:27.926Z,58.34
2024-05-09T12:50:58.610Z,58.08
2024-05-09T12:53:26.160Z,57.81
2024-05-09T12:56:00.190Z,57.76
2024-05-09T12:58:32.548Z,57.35
2024-05-09T13:01:02.806Z,57.31
2024-05-09T13:03:30.475Z,57.29
2024-05-09T13:06:00.949Z,57.55
2024-05-09T13:08:31.250Z,57.54
2024-05-09T13:11:02.054Z,57.10
2024-05-09T13:13:32.232Z,57.00
2024-05-09T13:16:02.523Z,56.82
2024-05-09T13:18:30.213Z,56.58
2024-05-09T13:21:00.439Z,56.33
2024-05-09T13:23:27.989Z,56.18
2024-05-09T13:25:58.481Z,55.73
2024-05-09T13:28:26.125Z,55.38
2024-05-09T13:30:59.096Z,55.24
2024-05-09T13:33:26.864Z,55.16
2024-05-09T13:35:57.106Z,55.11
2024-05-09T13:38:24.677Z,55.31
2024-05-09T13:40:54.819Z,54.44
2024-05-09T13:43:23.386Z,54.08
2024-05-09T13:45:55.240Z,53.59
2024-05-09T13:48:25.642Z,53.44
2024-05-09T13:50:55.964Z,53.10
2024-05-09T13:53:25.217Z,53.12
2024-05-09T13:55:55.395Z,53.13
2024-05-09T13:58:23.629Z,53.41
2024-05-09T14:00:54.058Z,53.13
2024-05-09T14:03:21.972Z,53.31
2024-05-09T14:05:55.067Z,53.25
2024-05-09T14:08:23.100Z,53.24
2024-05-09T14:10:53.768Z,53.02
2024-05-09T14:13:21.510Z,52.45
2024-05-09T14:15:52.049Z,52.35
2024-05-09T14:18:20.021Z,51.86
2024-05-09T14:20:50.151Z,51.86
2024-05-09T14:23:20.898Z,51.19
2024-05-09T14:25:53.051Z,51.06
2024-05-09T14:28:21.251Z,50.89
2024-05-09T14:30:51.687Z,50.78
2024-05-09T14:33:25.544Z,50.74
2024-05-09T14:35:56.053Z,50.75
2024-05-09T14:38:27.859Z,50.36
2024-05-09T14:40:58.163Z,50.87
2024-05-09T14:43:25.799Z,50.66
2024-05-09T14:45:56.394Z,50.42
2024-05-09T14:48:24.073Z,50.54
2024-05-09T14:50:54.554Z,50.98
2024-05-09T14:53:23.685Z,51.73
2024-05-09T14:55:57.507Z,51.64
2024-05-09T14:58:25.543Z,51.17
2024-05-09T15:00:56.049Z,50.92
2024-05-09T15:03:23.667Z,50.69
2024-05-09T15:05:54.075Z,50.48
2024-05-09T15:08:21.735Z,50.33
2024-05-09T15:10:52.284Z,50.30
2024-05-09T15:13:22.802Z,50.22
2024-05-09T15:15:53.434Z,50.04
2024-05-09T15:18:21.331Z,49.79
2024-05-09T15:20:51.800Z,49.70
2024-05-09T15:23:19.316Z,49.74
2024-05-09T15:25:49.558Z,49.19
2024-05-09T15:28:17.207Z,49.09
2024-05-09T15:30:50.351Z,48.49
2024-05-09T15:33:18.266Z,48.33
2024-05-09T15:35:49.419Z,48.22
2024-05-09T15:38:18.383Z,48.06
2024-05-09T15:40:48.951Z,47.83
2024-05-09T15:43:16.737Z,47.56
2024-05-09T15:45:49.826Z,47.99
2024-05-09T15:48:17.929Z,47.95
2024-05-09T15:50:48.227Z,47.15
2024-05-09T15:53:15.864Z,47.67
2024-05-09T15:55:46.162Z,47.97
2024-05-09T15:58:14.726Z,48.19
2024-05-09T16:00:47.019Z,48.09
2024-05-09T16:03:21.183Z,48.23
2024-05-09T16:05:51.967Z,48.46
2024-05-09T16:08:19.761Z,48.27
2024-05-09T16:10:50.320Z,48.17
2024-05-09T16:13:19.809Z,47.72
2024-05-09T16:15:50.459Z,47.20
2024-05-09T16:18:21.520Z,46.78
2024-05-09T16:20:59.404Z,46.05
2024-05-09T16:23:26.987Z,45.99
2024-05-09T16:25:57.313Z,45.94
2024-05-09T16:28:26.951Z,45.91
2024-05-09T16:30:58.217Z,45.45
2024-05-09T16:33:28.687Z,45.62
2024-05-09T16:35:59.059Z,45.61
2024-05-09T16:38:26.589Z,45.57
2024-05-09T16:40:56.752Z,45.69
2024-05-09T16:43:24.508Z,45.57
2024-05-09T16:45:54.676Z,45.61
2024-05-09T16:48:22.414Z,45.48
2024-05-09T16:50:55.204Z,46.00
2024-05-09T16:53:23.265Z,45.76
2024-05-09T16:55:53.360Z,46.27
2024-05-09T16:58:21.035Z,46.38
2024-05-09T17:00:51.291Z,46.37
2024-05-09T17:03:20.198Z,46.36
2024-05-09T17:05:50.765Z,46.46
2024-05-09T17:08:21.119Z,46.74
2024-05-09T17:10:51.572Z,46.76
2024-05-09T17:13:22.698Z,47.03
2024-05-09T17:15:50.659Z,46.95
2024-05-09T17:18:21.495Z,47.11
2024-05-09T17:20:50.312Z,47.06
2024-05-09T17:23:20.560Z,47.02
2024-05-09T17:25:50.654Z,47.37
2024-05-09T17:28:21.231Z,47.45
2024-05-09T17:30:49.131Z,47.44
2024-05-09T17:33:19.770Z,47.23
2024-05-09T17:35:50.774Z,47.54
2024-05-09T17:38:22.927Z,47.53
2024-05-09T17:40:53.621Z,47.58
2024-05-09T17:43:23.935Z,47.81
2024-05-09T17:45:51.590Z,48.16
2024-05-09T17:48:22.079Z,48.09
2024-05-09T17:50:51.503Z,48.38
2024-05-09T17:53:21.637Z,48.33
2024-05-09T17:55:49.178Z,48.46
2024-05-09T17:58:22.199Z,48.59
2024-05-09T18:00:49.921Z,48.72
2024-05-09T18:03:20.145Z,48.76
2024-05-09T18:05:47.794Z,49.18
2024-05-09T18:08:18.078Z,48.86
2024-05-09T18:10:45.602Z,49.24
2024-05-09T18:13:16.212Z,49.35
2024-05-09T18:15:46.475Z,49.13
2024-05-09T18:18:17.316Z,49.37
2024-05-09T18:20:46.184Z,49.50
2024-05-09T18:23:18.865Z,49.37
2024-05-09T18:25:47.768Z,49.57
2024-05-09T18:28:18.362Z,49.95
2024-05-09T18:30:48.582Z,50.11
2024-05-09T18:33:19.212Z,50.51
2024-05-09T18:35:46.916Z,50.78
2024-05-09T18:38:17.672Z,51.38
2024-05-09T18:40:48.340Z,51.95
2024-05-09T18:43:26.206Z,52.07
2024-05-09T18:46:04.286Z,52.05
2024-05-09T18:48:32.010Z,52.04
2024-05-09T18:51:02.405Z,52.45
2024-05-09T18:53:30.077Z,52.41
2024-05-09T18:56:00.289Z,52.73
2024-05-09T18:58:27.800Z,52.41
2024-05-09T19:01:00.800Z,52.80
2024-05-09T19:03:32.076Z,52.66
2024-05-09T19:06:02.623Z,52.90
2024-05-09T19:08:30.212Z,53.75
2024-05-09T19:11:02.046Z,53.48
2024-05-09T19:13:30.023Z,53.92
2024-05-09T19:16:00.434Z,53.85
2024-05-09T19:18:28.243Z,54.08
2024-05-09T19:21:01.004Z,54.72
2024-05-09T19:23:29.009Z,55.77
2024-05-09T19:25:59.394Z,56.44
2024-05-09T19:28:26.919Z,57.12
2024-05-09T19:30:57.357Z,57.29
2024-05-09T19:33:24.917Z,57.41
2024-05-09T19:35:55.547Z,57.96
2024-05-09T19:38:25.752Z,58.10
2024-05-09T19:40:55.952Z,58.52
2024-05-09T19:43:23.543Z,58.83
2024-05-09T19:45:53.848Z,58.53
2024-05-09T19:48:22.277Z,59.15
2024-05-09T19:50:53.257Z,60.19
2024-05-09T19:53:21.202Z,60.40
2024-05-09T19:55:53.937Z,60.84
2024-05-09T19:58:21.794Z,60.87
2024-05-09T20:00:52.176Z,61.07
2024-05-09T20:03:19.859Z,61.38
2024-05-09T20:05:50.193Z,61.71
2024-05-09T20:08:17.844Z,61.90
2024-05-09T20:10:48.070Z,61.74
2024-05-09T20:13:18.409Z,61.93
2024-05-09T20:15:48.650Z,61.71
2024-05-09T20:18:18.164Z,61.88
2024-05-09T20:20:51.648Z,61.68
2024-05-09T20:23:21.310Z,61.65
2024-05-09T20:25:51.462Z,61.66
2024-05-09T20:28:21.744Z,61.75
2024-05-09T20:30:52.010Z,62.13
2024-05-09T20:33:19.517Z,62.07
2024-05-09T20:35:49.834Z,62.05
2024-05-09T20:38:17.605Z,62.39
2024-05-09T20:40:47.889Z,62.53
2024-05-09T20:43:15.565Z,62.69
2024-05-09T20:45:48.390Z,62.95
2024-05-09T20:48:15.978Z,63.07
2024-05-09T20:50:46.317Z,63.46
2024-05-09T20:53:15.127Z,63.71
2024-05-09T20:55:46.477Z,64.54
2024-05-09T20:58:14.217Z,64.82
2024-05-09T21:00:45.929Z,65.17
2024-05-09T21:03:17.657Z,65.60
2024-05-09T21:05:48.904Z,66.00
2024-05-09T21:08:16.658Z,66.02
2024-05-09T21:10:46.891Z,66.36
2024-05-09T21:13:14.832Z,66.46
2024-05-09T21:15:45.173Z,66.01
2024-05-09T21:18:12.925Z,65.76
2024-05-09T21:20:45.826Z,65.71
2024-05-09T21:23:13.314Z,66.12
2024-05-09T21:25:43.574Z,66.43
2024-05-09T21:28:11.102Z,66.62
2024-05-09T21:30:42.977Z,67.03
2024-05-09T21:33:12.974Z,66.88
2024-05-09T21:35:47.128Z,66.76
2024-05-09T21:38:15.767Z,66.50
2024-05-09T21:40:46.290Z,66.58
2024-05-09T21:43:14.497Z,66.67
2024-05-09T21:45:45.119Z,66.49
2024-05-09T21:48:13.465Z,66.64
2024-05-09T21:50:46.421Z,66.80
2024-05-09T21:53:14.451Z,66.84
2024-05-09T21:55:45.043Z,67.01
2024-05-09T21:58:12.928Z,67.20
2024-05-09T22:00:45.589Z,67.33
2024-05-09T22:03:13.509Z,67.64
2024-05-09T22:05:45.091Z,67.58
2024-05-09T22:08:15.733Z,67.71
2024-05-09T22:10:46.019Z,67.64
2024-05-09T22:13:13.906Z,68.08
2024-05-09T22:15:44.179Z,68.55
2024-05-09T22:18:12.193Z,68.68
2024-05-09T22:20:45.776Z,68.98
2024-05-09T22:23:16.709Z,69.08
2024-05-09T22:25:46.941Z,69.14
2024-05-09T22:28:15.823Z,69.37
2024-05-09T22:30:47.327Z,68.97
2024-05-09T22:33:15.600Z,68.76
2024-05-09T22:35:45.896Z,68.65
2024-05-09T22:38:16.010Z,68.77
2024-05-09T22:40:49.187Z,69.21
2024-05-09T22:43:20.697Z,69.63
2024-05-09T22:45:52.385Z,69.37
2024-05-09T22:48:20.687Z,69.61
2024-05-09T22:50:50.885Z,69.67
2024-05-09T22:53:22.179Z,70.14
2024-05-09T22:55:52.222Z,69.89
2024-05-09T22:58:20.792Z,69.91
2024-05-09T23:00:51.284Z,69.96
2024-05-09T23:03:21.530Z,70.74
2024-05-09T23:05:51.996Z,70.60
2024-05-09T23:08:22.066Z,70.75
2024-05-09T23:10:52.295Z,70.57
2024-05-09T23:13:20.166Z,70.50
2024-05-09T23:15:50.526Z,70.21
2024-05-09T23:18:18.187Z,70.31
2024-05-09T23:20:48.382Z,69.86
2024-05-09T23:23:16.040Z,70.09
2024-05-09T23:25:48.830Z,70.29
2024-05-09T23:28:16.374Z,69.90
2024-05-09T23:30:46.533Z,70.51
2024-05-09T23:33:14.607Z,70.59
2024-05-09T23:35:46.009Z,70.57
2024-05-09T23:38:16.465Z,70.46
2024-05-09T23:40:46.599Z,69.95
2024-05-09T23:43:17.044Z,70.28
2024-05-09T23:45:44.580Z,70.28
2024-05-09T23:48:14.937Z,70.31
2024-05-09T23:50:43.383Z,70.83
2024-05-09T23:53:14.328Z,71.85
2024-05-09T23:55:42.018Z,72.04
2024-05-09T23:58:14.817Z,72.22
